createdAt,value
2023-03-04T00:01:11.255Z,1.53
2023-03-04T00:03:39.124Z,1.37
2023-03-04T00:06:07.517Z,1.13
2023-03-04T00:08:36.098Z,0.97
2023-03-04T00:11:05.640Z,1.40
2023-03-04T00:13:33.404Z,1.80
2023-03-04T00:16:01.234Z,1.20
2023-03-04T00:18:29.079Z,1.20
2023-03-04T00:20:56.893Z,0.97
2023-03-04T00:23:24.639Z,0.97
2023-03-04T00:25:52.400Z,0.90
2023-03-04T00:28:21.563Z,1.40
2023-03-04T00:30:49.363Z,1.13
2023-03-04T00:33:17.210Z,1.63
2023-03-04T00:35:45.159Z,1.00
2023-03-04T00:38:13.009Z,1.03
2023-03-04T00:40:41.053Z,1.17
2023-03-04T00:43:08.816Z,0.67
2023-03-04T00:45:38.048Z,1.30
2023-03-04T00:48:06.199Z,1.27
2023-03-04T00:50:34.032Z,0.90
2023-03-04T00:53:02.042Z,1.00
2023-03-04T00:55:30.101Z,0.60
2023-03-04T00:57:57.917Z,0.90
2023-03-04T01:00:25.912Z,0.90
2023-03-04T01:02:55.079Z,0.87
2023-03-04T01:05:23.308Z,1.10
2023-03-04T01:07:51.033Z,1.40
2023-03-04T01:10:19.259Z,1.10
2023-03-04T01:12:47.246Z,1.10
2023-03-04T01:15:16.053Z,1.10
2023-03-04T01:17:43.828Z,1.37
2023-03-04T01:20:14.067Z,1.70
2023-03-04T01:22:41.844Z,1.43
2023-03-04T01:25:10.725Z,0.83
2023-03-04T01:27:38.486Z,0.70
2023-03-04T01:30:07.476Z,1.00
2023-03-04T01:32:35.587Z,1.37
2023-03-04T01:35:03.545Z,1.00
2023-03-04T01:37:32.740Z,0.90
2023-03-04T01:40:00.500Z,1.10
2023-03-04T01:42:31.584Z,1.10
2023-03-04T01:44:59.398Z,0.83
2023-03-04T01:47:30.706Z,1.00
2023-03-04T01:49:59.906Z,1.20
2023-03-04T01:52:29.016Z,1.07
2023-03-04T01:54:58.790Z,1.03
2023-03-04T01:57:28.009Z,1.00
2023-03-04T02:00:25.658Z,1.13
2023-03-04T02:02:56.122Z,1.40
2023-03-04T02:05:24.698Z,1.20
2023-03-04T02:07:54.089Z,0.60
2023-03-04T02:10:23.812Z,1.30
2023-03-04T02:12:51.777Z,1.10
2023-03-04T02:15:20.000Z,0.97
2023-03-04T02:17:48.052Z,0.90
2023-03-04T02:20:28.621Z,0.70
2023-03-04T02:23:05.105Z,1.73
2023-03-04T02:25:39.617Z,1.23
2023-03-04T02:28:08.800Z,1.30
2023-03-04T02:30:36.617Z,0.73
2023-03-04T02:33:04.442Z,1.10
2023-03-04T02:35:32.302Z,0.83
2023-03-04T02:38:00.097Z,0.60
2023-03-04T02:40:32.280Z,0.73
2023-03-04T02:43:00.576Z,1.33
2023-03-04T02:45:48.550Z,0.93
2023-03-04T02:48:22.132Z,1.47
2023-03-04T02:50:52.859Z,1.10
2023-03-04T02:53:22.377Z,0.97
2023-03-04T02:55:50.353Z,0.90
2023-03-04T02:58:18.493Z,0.67
2023-03-04T03:00:47.607Z,0.70
2023-03-04T03:03:15.358Z,0.83
2023-03-04T03:05:43.088Z,0.90
2023-03-04T03:08:10.919Z,0.80
2023-03-04T03:10:38.787Z,0.70
2023-03-04T03:13:06.569Z,0.70
2023-03-04T03:15:34.477Z,0.73
2023-03-04T03:18:03.621Z,1.20
2023-03-04T03:20:31.501Z,1.00
2023-03-04T03:22:59.249Z,0.83
2023-03-04T03:25:26.970Z,0.70
2023-03-04T03:27:54.782Z,0.90
2023-03-04T03:30:22.703Z,0.57
2023-03-04T03:32:50.553Z,1.07
2023-03-04T03:35:20.007Z,1.10
2023-03-04T03:37:49.034Z,0.87
2023-03-04T03:40:17.703Z,0.90
2023-03-04T03:42:45.553Z,0.50
2023-03-04T03:45:13.673Z,1.00
2023-03-04T03:47:41.530Z,0.87
2023-03-04T03:50:10.275Z,0.90
2023-03-04T03:52:39.476Z,1.03
2023-03-04T03:55:07.965Z,0.70
2023-03-04T03:57:35.753Z,0.87
2023-03-04T04:00:03.613Z,0.90
2023-03-04T04:02:31.441Z,1.00
2023-03-04T04:04:59.346Z,1.17
2023-03-04T04:07:27.116Z,0.80
2023-03-04T04:09:56.238Z,1.13
2023-03-04T04:12:23.970Z,1.20
2023-03-04T04:14:51.936Z,0.83
2023-03-04T04:17:19.729Z,1.23
2023-03-04T04:19:47.485Z,0.87
2023-03-04T04:22:17.718Z,1.10
2023-03-04T04:24:45.688Z,1.00
2023-03-04T04:27:14.975Z,0.97
2023-03-04T04:29:43.092Z,1.00
2023-03-04T04:32:13.159Z,0.63
2023-03-04T04:34:40.992Z,0.90
2023-03-04T04:37:09.155Z,0.60
2023-03-04T04:39:37.106Z,1.00
2023-03-04T04:42:04.976Z,0.90
2023-03-04T04:44:34.132Z,1.27
2023-03-04T04:47:01.966Z,1.00
2023-03-04T04:49:29.679Z,0.90
2023-03-04T04:51:57.423Z,0.50
2023-03-04T04:54:25.599Z,0.77
2023-03-04T04:56:53.514Z,1.07
2023-03-04T04:59:21.288Z,0.77
2023-03-04T05:01:50.564Z,1.03
2023-03-04T05:04:18.463Z,1.00
2023-03-04T05:06:46.340Z,1.33
2023-03-04T05:09:14.573Z,0.70
2023-03-04T05:11:42.608Z,1.00
2023-03-04T05:14:10.397Z,1.00
2023-03-04T05:16:38.188Z,0.97
2023-03-04T05:19:07.770Z,0.90
2023-03-04T05:21:35.546Z,0.90
2023-03-04T05:24:03.364Z,0.73
2023-03-04T05:26:31.353Z,1.00
2023-03-04T05:28:59.083Z,1.23
2023-03-04T05:31:26.993Z,1.03
2023-03-04T05:33:55.096Z,1.00
2023-03-04T05:36:24.525Z,0.90
2023-03-04T05:38:52.378Z,1.00
2023-03-04T05:41:22.648Z,1.03
2023-03-04T05:43:51.182Z,0.80
2023-03-04T05:46:25.389Z,0.97
2023-03-04T05:48:53.961Z,1.00
2023-03-04T05:51:22.470Z,0.73
2023-03-04T05:53:51.770Z,1.03
2023-03-04T05:56:21.269Z,1.13
2023-03-04T05:58:49.082Z,0.80
2023-03-04T06:01:17.850Z,0.93
2023-03-04T06:03:48.503Z,1.23
2023-03-04T06:06:16.453Z,0.83
2023-03-04T06:08:44.362Z,0.70
2023-03-04T06:11:13.430Z,0.87
2023-03-04T06:13:41.271Z,0.87
2023-03-04T06:16:09.687Z,0.90
2023-03-04T06:18:37.510Z,1.20
2023-03-04T06:21:05.905Z,1.10
2023-03-04T06:23:33.701Z,0.77
2023-03-04T06:26:02.206Z,0.80
2023-03-04T06:28:31.368Z,0.77
2023-03-04T06:30:59.501Z,0.90
2023-03-04T06:33:27.310Z,0.50
2023-03-04T06:35:56.676Z,0.90
2023-03-04T06:38:25.463Z,0.73
2023-03-04T06:40:54.311Z,0.70
2023-03-04T06:43:24.461Z,0.70
2023-03-04T06:45:53.994Z,0.70
2023-03-04T06:48:21.774Z,0.67
2023-03-04T06:50:49.515Z,0.70
2023-03-04T06:53:17.242Z,0.70
2023-03-04T06:55:45.005Z,1.00
2023-03-04T06:58:13.011Z,0.57
2023-03-04T07:00:40.788Z,0.90
2023-03-04T07:03:10.302Z,1.10
2023-03-04T07:05:38.097Z,0.73
2023-03-04T07:08:07.084Z,0.90
2023-03-04T07:10:34.982Z,1.10
2023-03-04T07:13:02.838Z,0.60
2023-03-04T07:15:31.193Z,0.73
2023-03-04T07:17:58.918Z,1.20
2023-03-04T07:20:30.675Z,0.80
2023-03-04T07:23:00.411Z,1.30
2023-03-04T07:25:28.202Z,1.27
2023-03-04T07:27:56.013Z,0.77
2023-03-04T07:30:24.040Z,0.87
2023-03-04T07:32:51.952Z,0.70
2023-03-04T07:35:19.862Z,0.77
2023-03-04T07:37:49.020Z,0.60
2023-03-04T07:40:17.123Z,0.47
2023-03-04T07:42:45.068Z,0.70
2023-03-04T07:45:13.349Z,0.60
2023-03-04T07:47:41.700Z,0.50
2023-03-04T07:50:11.810Z,0.40
2023-03-04T07:52:39.772Z,0.50
2023-03-04T07:55:10.568Z,0.60
2023-03-04T07:57:40.311Z,0.40
2023-03-04T08:00:09.463Z,0.40
2023-03-04T08:02:37.289Z,0.37
2023-03-04T08:05:05.602Z,0.40
2023-03-04T08:07:33.468Z,0.40
2023-03-04T08:10:01.279Z,0.20
2023-03-04T08:12:30.547Z,0.20
2023-03-04T08:14:58.346Z,0.40
2023-03-04T08:17:26.158Z,0.40
2023-03-04T08:19:54.024Z,0.20
2023-03-04T08:22:21.961Z,0.20
2023-03-04T08:24:49.722Z,0.20
2023-03-04T08:27:18.940Z,0.50
2023-03-04T08:29:48.075Z,0.40
2023-03-04T08:32:15.840Z,0.47
2023-03-04T08:34:43.647Z,0.30
2023-03-04T08:37:11.454Z,0.30
2023-03-04T08:39:39.396Z,0.30
2023-03-04T08:42:07.204Z,0.47
2023-03-04T08:44:35.289Z,0.37
2023-03-04T08:47:04.733Z,0.53
2023-03-04T08:49:32.715Z,0.50
2023-03-04T08:52:00.513Z,0.40
2023-03-04T08:54:28.344Z,0.80
2023-03-04T08:56:56.068Z,0.57
2023-03-04T08:59:23.932Z,0.40
2023-03-04T09:01:51.859Z,0.37
2023-03-04T09:04:21.173Z,0.50
2023-03-04T09:06:48.994Z,0.50
2023-03-04T09:09:16.848Z,0.40
2023-03-04T09:11:44.619Z,0.40
2023-03-04T09:14:12.442Z,0.60
2023-03-04T09:16:40.182Z,0.40
2023-03-04T09:19:07.989Z,0.60
2023-03-04T09:21:37.147Z,0.43
2023-03-04T09:24:05.375Z,0.50
2023-03-04T09:26:33.161Z,0.50
2023-03-04T09:29:02.724Z,0.70
2023-03-04T09:31:30.985Z,0.43
2023-03-04T09:34:00.486Z,0.50
2023-03-04T09:36:28.307Z,0.43
2023-03-04T09:39:00.553Z,0.40
2023-03-04T09:41:37.492Z,0.37
2023-03-04T09:44:14.313Z,0.37
2023-03-04T09:46:44.399Z,0.30
2023-03-04T09:49:13.437Z,0.30
2023-03-04T09:51:59.610Z,0.40
2023-03-04T09:54:51.798Z,0.40
2023-03-04T09:57:29.147Z,0.57
2023-03-04T10:00:07.821Z,0.30
2023-03-04T10:02:46.037Z,0.50
2023-03-04T10:05:18.147Z,0.57
2023-03-04T10:07:50.858Z,0.70
2023-03-04T10:10:27.219Z,0.50
2023-03-04T10:12:58.495Z,0.40
2023-03-04T10:15:35.041Z,0.57
2023-03-04T10:18:13.723Z,0.50
2023-03-04T10:20:52.176Z,0.57
2023-03-04T10:23:25.337Z,0.30
2023-03-04T10:25:54.951Z,0.50
2023-03-04T10:28:26.613Z,0.40
2023-03-04T10:31:00.949Z,0.57
2023-03-04T10:33:31.607Z,0.40
2023-03-04T10:36:03.156Z,0.50
2023-03-04T10:38:33.677Z,0.30
2023-03-04T10:41:12.653Z,0.40
2023-03-04T10:43:40.575Z,0.43
2023-03-04T10:46:12.531Z,0.30
2023-03-04T10:48:44.929Z,0.50
2023-03-04T10:51:19.675Z,0.37
2023-03-04T10:53:48.603Z,0.57
2023-03-04T10:56:39.476Z,0.60
2023-03-04T10:59:43.921Z,0.60
2023-03-04T11:02:22.526Z,0.63
2023-03-04T11:04:58.511Z,0.50
2023-03-04T11:07:28.599Z,0.60
2023-03-04T11:09:58.388Z,0.40
2023-03-04T11:12:36.084Z,0.40
2023-03-04T11:15:05.363Z,0.40
2023-03-04T11:17:44.906Z,0.60
2023-03-04T11:20:21.631Z,0.70
2023-03-04T11:22:49.780Z,0.50
2023-03-04T11:25:27.036Z,0.50
2023-03-04T11:27:59.250Z,0.60
2023-03-04T11:30:35.015Z,1.40
2023-03-04T11:33:16.964Z,0.60
2023-03-04T11:35:54.926Z,0.47
2023-03-04T11:38:26.832Z,0.63
2023-03-04T11:40:58.692Z,0.70
2023-03-04T11:43:34.211Z,0.60
2023-03-04T11:46:37.686Z,0.60
2023-03-04T11:49:29.309Z,0.40
2023-03-04T11:52:10.369Z,0.60
2023-03-04T11:54:46.813Z,0.43
2023-03-04T11:57:24.570Z,0.30
2023-03-04T12:00:10.159Z,0.63
2023-03-04T12:02:47.787Z,0.60
2023-03-04T12:05:39.522Z,0.50
2023-03-04T12:08:22.950Z,0.57
2023-03-04T12:10:59.526Z,0.53
2023-03-04T12:14:02.471Z,0.50
2023-03-04T12:16:56.496Z,0.40
2023-03-04T12:19:35.199Z,0.43
2023-03-04T12:22:29.065Z,0.80
2023-03-04T12:25:26.250Z,0.57
2023-03-04T12:28:04.311Z,0.33
2023-03-04T12:30:51.183Z,0.60
2023-03-04T12:33:28.992Z,0.50
2023-03-04T12:36:11.801Z,0.40
2023-03-04T12:39:02.771Z,0.40
2023-03-04T12:41:40.194Z,0.60
2023-03-04T12:44:17.049Z,0.40
2023-03-04T12:47:11.855Z,0.33
2023-03-04T12:50:22.200Z,0.47
2023-03-04T12:53:01.083Z,0.50
2023-03-04T12:55:37.500Z,0.53
2023-03-04T12:58:06.854Z,0.30
2023-03-04T13:00:46.586Z,0.40
2023-03-04T13:03:19.001Z,0.40
2023-03-04T13:06:00.657Z,0.20
2023-03-04T13:08:37.296Z,0.33
2023-03-04T13:11:42.667Z,0.37
2023-03-04T13:14:25.411Z,0.80
2023-03-04T13:16:55.083Z,0.50
2023-03-04T13:19:49.312Z,0.50
2023-03-04T13:22:46.028Z,0.30
2023-03-04T13:25:32.962Z,0.60
2023-03-04T13:28:22.351Z,1.37
2023-03-04T13:31:23.715Z,1.20
2023-03-04T13:34:00.630Z,1.10
2023-03-04T13:36:59.154Z,0.50
2023-03-04T13:39:33.532Z,0.83
2023-03-04T13:42:02.386Z,0.90
2023-03-04T13:44:58.180Z,1.00
2023-03-04T13:47:34.060Z,1.10
2023-03-04T13:50:26.010Z,0.90
2023-03-04T13:52:55.447Z,1.13
2023-03-04T13:55:39.896Z,0.83
2023-03-04T13:58:20.208Z,0.50
2023-03-04T14:00:53.372Z,0.80
2023-03-04T14:03:24.151Z,0.77
2023-03-04T14:06:27.378Z,1.27
2023-03-04T14:08:56.395Z,0.97
2023-03-04T14:11:34.308Z,0.97
2023-03-04T14:14:06.820Z,1.00
2023-03-04T14:16:40.744Z,0.87
2023-03-04T14:19:17.027Z,1.17
2023-03-04T14:21:48.669Z,1.10
2023-03-04T14:24:19.668Z,0.63
2023-03-04T14:26:49.444Z,0.73
2023-03-04T14:29:25.718Z,0.80
2023-03-04T14:31:54.413Z,0.87
2023-03-04T14:34:27.651Z,1.20
2023-03-04T14:36:55.692Z,1.27
2023-03-04T14:39:27.614Z,1.40
2023-03-04T14:42:03.209Z,1.10
2023-03-04T14:44:37.900Z,1.67
2023-03-04T14:47:14.769Z,4.70
2023-03-04T14:49:42.635Z,2.27
2023-03-04T14:52:31.965Z,2.00
2023-03-04T14:55:02.173Z,1.23
2023-03-04T14:57:34.755Z,1.37
2023-03-04T15:00:18.031Z,1.00
2023-03-04T15:02:46.010Z,0.80
2023-03-04T15:05:25.456Z,0.93
2023-03-04T15:07:55.909Z,1.00
2023-03-04T15:10:26.687Z,1.00
2023-03-04T15:13:00.247Z,2.03
2023-03-04T15:15:40.973Z,1.50
2023-03-04T15:18:26.424Z,1.53
2023-03-04T15:20:59.213Z,1.37
2023-03-04T15:23:28.018Z,1.20
2023-03-04T15:25:57.554Z,1.30
2023-03-04T15:28:28.534Z,1.27
2023-03-04T15:30:56.446Z,1.00
2023-03-04T15:33:24.687Z,1.10
2023-03-04T15:35:56.270Z,0.87
2023-03-04T15:38:24.938Z,0.97
2023-03-04T15:40:54.551Z,1.40
2023-03-04T15:43:24.079Z,1.00
2023-03-04T15:45:54.385Z,1.00
2023-03-04T15:48:22.583Z,1.37
2023-03-04T15:50:56.454Z,1.00
2023-03-04T15:53:32.656Z,1.70
2023-03-04T15:56:01.675Z,1.20
2023-03-04T15:58:32.092Z,1.00
2023-03-04T16:01:02.320Z,1.00
2023-03-04T16:03:30.482Z,1.13
2023-03-04T16:05:58.915Z,1.03
2023-03-04T16:08:26.916Z,0.97
2023-03-04T16:10:55.069Z,1.40
2023-03-04T16:13:24.837Z,1.50
2023-03-04T16:15:53.420Z,1.47
2023-03-04T16:18:23.744Z,1.33
2023-03-04T16:20:52.501Z,1.17
2023-03-04T16:23:23.333Z,1.20
2023-03-04T16:25:54.687Z,1.30
2023-03-04T16:28:22.818Z,1.10
2023-03-04T16:30:51.013Z,1.37
2023-03-04T16:33:18.865Z,0.83
2023-03-04T16:35:48.243Z,0.93
2023-03-04T16:38:25.916Z,0.80
2023-03-04T16:40:54.367Z,0.80
2023-03-04T16:43:22.249Z,0.97
2023-03-04T16:45:50.184Z,0.73
2023-03-04T16:48:20.233Z,0.77
2023-03-04T16:50:49.538Z,0.80
2023-03-04T16:53:26.034Z,0.83
2023-03-04T16:55:53.821Z,0.60
2023-03-04T16:58:21.599Z,1.00
2023-03-04T17:00:49.356Z,0.90
2023-03-04T17:03:17.123Z,0.90
2023-03-04T17:05:45.409Z,1.00
2023-03-04T17:08:14.649Z,0.80
2023-03-04T17:10:42.729Z,0.50
2023-03-04T17:13:10.507Z,0.40
2023-03-04T17:15:38.440Z,0.63
2023-03-04T17:18:06.366Z,0.50
2023-03-04T17:20:34.245Z,0.70
2023-03-04T17:23:02.256Z,0.50
2023-03-04T17:25:31.818Z,0.83
2023-03-04T17:27:59.654Z,0.80
2023-03-04T17:30:28.211Z,0.60
2023-03-04T17:32:56.051Z,0.73
2023-03-04T17:35:25.787Z,0.60
2023-03-04T17:37:53.646Z,0.57
2023-03-04T17:40:21.628Z,0.70
2023-03-04T17:42:50.749Z,0.63
2023-03-04T17:45:18.724Z,0.90
2023-03-04T17:47:46.545Z,1.50
2023-03-04T17:50:14.304Z,4.30
2023-03-04T17:52:42.368Z,2.20
2023-03-04T17:55:11.241Z,2.47
2023-03-04T17:57:39.426Z,1.27
2023-03-04T18:00:10.711Z,0.80
2023-03-04T18:02:38.537Z,0.50
2023-03-04T18:05:07.487Z,0.80
2023-03-04T18:07:35.460Z,0.80
2023-03-04T18:10:03.423Z,0.80
2023-03-04T18:12:31.290Z,1.10
2023-03-04T18:14:59.160Z,0.93
2023-03-04T18:17:31.598Z,0.80
2023-03-04T18:19:59.400Z,1.07
2023-03-04T18:22:27.382Z,0.90
2023-03-04T18:24:55.160Z,1.00
2023-03-04T18:27:23.103Z,0.60
2023-03-04T18:29:50.854Z,0.93
2023-03-04T18:32:19.131Z,1.10
2023-03-04T18:34:48.199Z,1.00
2023-03-04T18:37:16.024Z,1.80
2023-03-04T18:39:43.815Z,1.40
2023-03-04T18:42:11.545Z,1.37
2023-03-04T18:44:39.580Z,1.40
2023-03-04T18:47:07.971Z,1.47
2023-03-04T18:49:35.785Z,1.33
2023-03-04T18:52:05.166Z,1.80
2023-03-04T18:54:32.912Z,2.47
2023-03-04T18:57:05.043Z,2.17
2023-03-04T18:59:37.635Z,2.57
2023-03-04T19:02:11.724Z,1.50
2023-03-04T19:04:39.547Z,1.57
2023-03-04T19:07:08.683Z,1.67
2023-03-04T19:09:36.440Z,1.67
2023-03-04T19:12:06.494Z,1.40
2023-03-04T19:14:34.471Z,1.20
2023-03-04T19:17:02.310Z,1.30
2023-03-04T19:19:30.065Z,1.27
2023-03-04T19:21:58.352Z,1.03
2023-03-04T19:24:27.841Z,1.10
2023-03-04T19:26:57.624Z,1.47
2023-03-04T19:29:25.437Z,1.27
2023-03-04T19:31:53.240Z,1.10
2023-03-04T19:34:21.115Z,1.50
2023-03-04T19:36:48.910Z,1.33
2023-03-04T19:39:18.536Z,1.10
2023-03-04T19:41:48.113Z,1.67
2023-03-04T19:44:15.911Z,1.50
2023-03-04T19:46:43.747Z,0.90
2023-03-04T19:49:11.628Z,0.53
2023-03-04T19:51:39.591Z,1.10
2023-03-04T19:54:07.827Z,1.30
2023-03-04T19:56:35.747Z,1.33
2023-03-04T19:59:05.049Z,1.57
2023-03-04T20:01:34.530Z,1.20
2023-03-04T20:04:04.741Z,2.00
2023-03-04T20:06:32.871Z,0.97
2023-03-04T20:09:01.664Z,1.70
2023-03-04T20:11:31.248Z,1.33
2023-03-04T20:13:59.394Z,1.03
2023-03-04T20:16:29.343Z,1.27
2023-03-04T20:18:58.040Z,0.77
2023-03-04T20:21:26.412Z,0.70
2023-03-04T20:23:54.553Z,0.60
2023-03-04T20:26:22.599Z,0.70
2023-03-04T20:28:50.593Z,0.67
2023-03-04T20:31:21.517Z,0.90
2023-03-04T20:33:51.845Z,1.00
2023-03-04T20:36:21.348Z,0.60
2023-03-04T20:38:51.271Z,0.80
2023-03-04T20:41:24.455Z,0.90
2023-03-04T20:43:52.348Z,0.70
2023-03-04T20:46:30.463Z,0.90
2023-03-04T20:49:01.311Z,0.77
2023-03-04T20:51:29.851Z,1.20
2023-03-04T20:53:57.649Z,1.73
2023-03-04T20:56:26.206Z,1.80
2023-03-04T20:58:56.114Z,1.40
2023-03-04T21:01:25.255Z,1.97
2023-03-04T21:03:53.559Z,1.60
2023-03-04T21:06:25.097Z,1.40
2023-03-04T21:08:53.255Z,1.00
2023-03-04T21:11:23.378Z,0.90
2023-03-04T21:13:56.025Z,0.90
2023-03-04T21:16:25.770Z,2.20
2023-03-04T21:18:54.344Z,1.63
2023-03-04T21:21:25.879Z,1.27
2023-03-04T21:23:55.403Z,1.30
2023-03-04T21:26:24.218Z,1.93
2023-03-04T21:28:53.745Z,1.50
2023-03-04T21:31:24.022Z,1.40
2023-03-04T21:33:53.943Z,1.30
2023-03-04T21:36:23.225Z,1.20
2023-03-04T21:38:51.238Z,1.03
2023-03-04T21:41:21.796Z,1.40
2023-03-04T21:43:49.866Z,1.03
2023-03-04T21:46:18.373Z,0.70
2023-03-04T21:48:47.884Z,1.00
2023-03-04T21:51:17.587Z,1.40
2023-03-04T21:53:46.861Z,1.40
2023-03-04T21:56:15.060Z,1.03
2023-03-04T21:58:42.963Z,1.00
2023-03-04T22:01:11.463Z,1.20
2023-03-04T22:03:39.719Z,0.90
2023-03-04T22:06:10.019Z,1.13
2023-03-04T22:08:39.133Z,1.50
2023-03-04T22:11:11.047Z,1.60
2023-03-04T22:13:39.073Z,1.17
2023-03-04T22:16:07.688Z,1.10
2023-03-04T22:18:36.355Z,1.13
2023-03-04T22:21:06.984Z,1.43
2023-03-04T22:23:35.525Z,1.20
2023-03-04T22:26:04.320Z,1.63
2023-03-04T22:28:33.722Z,0.90
2023-03-04T22:31:01.965Z,1.10
2023-03-04T22:33:32.754Z,1.10
2023-03-04T22:36:00.635Z,1.13
2023-03-04T22:38:28.465Z,1.53
2023-03-04T22:40:56.220Z,1.10
2023-03-04T22:43:23.951Z,0.87
2023-03-04T22:45:54.349Z,0.93
2023-03-04T22:48:22.244Z,1.27
2023-03-04T22:50:50.050Z,1.30
2023-03-04T22:53:17.919Z,1.13
2023-03-04T22:55:45.682Z,1.00
2023-03-04T22:58:13.606Z,1.00
2023-03-04T23:00:41.493Z,1.10
2023-03-04T23:03:10.888Z,0.77
2023-03-04T23:05:38.888Z,0.70
2023-03-04T23:08:06.953Z,0.97
2023-03-04T23:10:34.926Z,1.07
2023-03-04T23:13:03.003Z,1.20
2023-03-04T23:15:30.804Z,1.23
2023-03-04T23:17:58.570Z,1.63
2023-03-04T23:20:27.961Z,1.50
2023-03-04T23:22:56.011Z,1.00
2023-03-04T23:25:24.927Z,1.17
2023-03-04T23:27:52.682Z,0.73
2023-03-04T23:30:20.707Z,1.00
2023-03-04T23:32:48.609Z,0.90
2023-03-04T23:35:16.586Z,1.00
2023-03-04T23:37:45.853Z,0.70
2023-03-04T23:40:14.282Z,1.33
2023-03-04T23:42:42.117Z,0.70
2023-03-04T23:45:11.093Z,0.90
2023-03-04T23:47:38.889Z,0.73
2023-03-04T23:50:08.842Z,0.93
2023-03-04T23:52:36.658Z,0.90
2023-03-04T23:55:06.749Z,0.73
2023-03-04T23:57:34.614Z,0.80
